sensor_id;sensor_type;location;lat;lon;timestamp;pressure;altitude;pressure_sealevel;temperature;humidity
46714;BME280;32445;51.376;10.874;2022-12-29T00:02:27;98488.47;;;9.85;59.03
46714;BME280;32445;51.376;10.874;2022-12-29T00:05:27;98487.50;;;9.88;58.91
46714;BME280;32445;51.376;10.874;2022-12-29T00:08:28;98477.13;;;9.88;58.34
46714;BME280;32445;51.376;10.874;2022-12-29T00:11:40;98475.28;;;9.92;58.54
46714;BME280;32445;51.376;10.874;2022-12-29T00:14:40;98482.06;;;9.94;58.27
46714;BME280;32445;51.376;10.874;2022-12-29T00:17:59;98474.25;;;9.96;58.27
46714;BME280;32445;51.376;10.874;2022-12-29T00:21:00;98462.97;;;9.97;58.32
46714;BME280;32445;51.376;10.874;2022-12-29T00:24:29;98460.25;;;10.00;58.63
46714;BME280;32445;51.376;10.874;2022-12-29T00:27:48;98451.56;;;10.01;58.38
46714;BME280;32445;51.376;10.874;2022-12-29T00:31:11;98456.69;;;10.02;58.44
46714;BME280;32445;51.376;10.874;2022-12-29T00:34:30;98459.22;;;10.04;58.34
46714;BME280;32445;51.376;10.874;2022-12-29T00:37:49;98446.25;;;10.04;58.65
46714;BME280;32445;51.376;10.874;2022-12-29T00:41:08;98436.81;;;10.03;58.46
46714;BME280;32445;51.376;10.874;2022-12-29T00:44:27;98431.44;;;10.08;58.71
46714;BME280;32445;51.376;10.874;2022-12-29T00:47:28;98438.19;;;10.12;58.70
46714;BME280;32445;51.376;10.874;2022-12-29T00:50:28;98438.09;;;10.13;59.16
46714;BME280;32445;51.376;10.874;2022-12-29T00:53:28;98438.94;;;10.14;58.86
46714;BME280;32445;51.376;10.874;2022-12-29T00:56:29;98449.97;;;10.19;58.97
46714;BME280;32445;51.376;10.874;2022-12-29T00:59:29;98441.22;;;10.21;58.65
46714;BME280;32445;51.376;10.874;2022-12-29T01:02:29;98437.72;;;10.22;59.25
46714;BME280;32445;51.376;10.874;2022-12-29T01:05:30;98440.16;;;10.26;58.83
46714;BME280;32445;51.376;10.874;2022-12-29T01:08:31;98455.56;;;10.30;58.64
46714;BME280;32445;51.376;10.874;2022-12-29T01:11:31;98453.81;;;10.31;59.00
46714;BME280;32445;51.376;10.874;2022-12-29T01:14:32;98458.91;;;10.32;59.00
46714;BME280;32445;51.376;10.874;2022-12-29T01:17:32;98453.72;;;10.32;58.86
46714;BME280;32445;51.376;10.874;2022-12-29T01:20:32;98442.44;;;10.35;58.77
46714;BME280;32445;51.376;10.874;2022-12-29T01:23:33;98444.06;;;10.37;58.95
46714;BME280;32445;51.376;10.874;2022-12-29T01:26:33;98454.28;;;10.41;59.31
46714;BME280;32445;51.376;10.874;2022-12-29T01:29:34;98442.94;;;10.43;58.62
46714;BME280;32445;51.376;10.874;2022-12-29T01:32:34;98438.59;;;10.44;58.79
46714;BME280;32445;51.376;10.874;2022-12-29T01:35:34;98427.38;;;10.43;59.27
46714;BME280;32445;51.376;10.874;2022-12-29T01:38:36;98436.75;;;10.46;58.98
46714;BME280;32445;51.376;10.874;2022-12-29T01:41:37;98430.69;;;10.47;59.30
46714;BME280;32445;51.376;10.874;2022-12-29T01:44:55;98441.78;;;10.50;58.68
46714;BME280;32445;51.376;10.874;2022-12-29T01:48:01;98419.13;;;10.54;59.11
46714;BME280;32445;51.376;10.874;2022-12-29T01:51:04;98423.41;;;10.55;58.57
46714;BME280;32445;51.376;10.874;2022-12-29T01:54:10;98432.09;;;10.54;58.79
46714;BME280;32445;51.376;10.874;2022-12-29T01:57:16;98430.28;;;10.56;58.49
46714;BME280;32445;51.376;10.874;2022-12-29T02:00:18;98421.44;;;10.60;59.07
46714;BME280;32445;51.376;10.874;2022-12-29T02:03:21;98437.94;;;10.59;58.85
46714;BME280;32445;51.376;10.874;2022-12-29T02:06:28;98407.63;;;10.60;59.12
46714;BME280;32445;51.376;10.874;2022-12-29T02:09:29;98402.31;;;10.63;59.46
46714;BME280;32445;51.376;10.874;2022-12-29T02:12:30;98390.19;;;10.63;59.24
46714;BME280;32445;51.376;10.874;2022-12-29T02:15:56;98399.72;;;10.63;59.90
46714;BME280;32445;51.376;10.874;2022-12-29T02:25:57;98368.50;;;10.64;59.86
46714;BME280;32445;51.376;10.874;2022-12-29T02:32:07;98365.66;;;10.70;60.53
46714;BME280;32445;51.376;10.874;2022-12-29T02:48:40;98379.31;;;10.74;59.89
46714;BME280;32445;51.376;10.874;2022-12-29T02:51:59;98385.22;;;10.78;60.33
46714;BME280;32445;51.376;10.874;2022-12-29T02:55:01;98363.53;;;10.79;60.31
46714;BME280;32445;51.376;10.874;2022-12-29T02:58:17;98365.22;;;10.80;59.93
46714;BME280;32445;51.376;10.874;2022-12-29T03:08:57;98354.56;;;10.86;60.27
46714;BME280;32445;51.376;10.874;2022-12-29T03:19:36;98376.53;;;10.98;59.64
46714;BME280;32445;51.376;10.874;2022-12-29T03:22:42;98366.06;;;10.99;60.06
46714;BME280;32445;51.376;10.874;2022-12-29T03:25:47;98381.59;;;11.01;60.28
46714;BME280;32445;51.376;10.874;2022-12-29T03:28:52;98374.63;;;11.01;60.17
46714;BME280;32445;51.376;10.874;2022-12-29T03:31:56;98377.88;;;11.06;60.18
46714;BME280;32445;51.376;10.874;2022-12-29T03:34:58;98384.78;;;11.06;60.02
46714;BME280;32445;51.376;10.874;2022-12-29T03:38:06;98386.41;;;11.08;60.43
46714;BME280;32445;51.376;10.874;2022-12-29T03:41:14;98380.31;;;11.10;60.37
46714;BME280;32445;51.376;10.874;2022-12-29T03:44:16;98372.44;;;11.11;60.24
46714;BME280;32445;51.376;10.874;2022-12-29T03:47:16;98365.50;;;11.12;60.09
46714;BME280;32445;51.376;10.874;2022-12-29T03:50:17;98355.03;;;11.13;60.13
46714;BME280;32445;51.376;10.874;2022-12-29T03:53:17;98354.13;;;11.14;59.91
46714;BME280;32445;51.376;10.874;2022-12-29T03:56:18;98363.59;;;11.15;60.18
46714;BME280;32445;51.376;10.874;2022-12-29T03:59:18;98354.03;;;11.16;59.97
46714;BME280;32445;51.376;10.874;2022-12-29T04:02:18;98353.16;;;11.17;60.20
46714;BME280;32445;51.376;10.874;2022-12-29T04:05:19;98356.66;;;11.16;59.81
46714;BME280;32445;51.376;10.874;2022-12-29T04:08:19;98354.91;;;11.16;60.12
46714;BME280;32445;51.376;10.874;2022-12-29T04:11:21;98353.28;;;11.14;60.17
46714;BME280;32445;51.376;10.874;2022-12-29T04:14:22;98350.69;;;11.14;60.36
46714;BME280;32445;51.376;10.874;2022-12-29T04:17:22;98350.78;;;11.12;60.13
46714;BME280;32445;51.376;10.874;2022-12-29T04:20:22;98340.22;;;11.15;60.57
46714;BME280;32445;51.376;10.874;2022-12-29T04:23:41;98343.50;;;11.19;60.30
46714;BME280;32445;51.376;10.874;2022-12-29T04:26:41;98339.31;;;11.16;60.18
46714;BME280;32445;51.376;10.874;2022-12-29T04:29:42;98344.53;;;11.16;60.18
46714;BME280;32445;51.376;10.874;2022-12-29T04:32:42;98341.78;;;11.19;60.68
46714;BME280;32445;51.376;10.874;2022-12-29T04:35:43;98338.31;;;11.19;60.40
46714;BME280;32445;51.376;10.874;2022-12-29T04:38:43;98343.50;;;11.19;60.27
46714;BME280;32445;51.376;10.874;2022-12-29T04:41:43;98346.06;;;11.20;60.60
46714;BME280;32445;51.376;10.874;2022-12-29T04:44:44;98344.38;;;11.19;60.33
46714;BME280;32445;51.376;10.874;2022-12-29T04:47:44;98342.53;;;11.21;60.76
46714;BME280;32445;51.376;10.874;2022-12-29T04:50:47;98344.22;;;11.22;60.30
46714;BME280;32445;51.376;10.874;2022-12-29T04:53:48;98326.66;;;11.28;60.30
46714;BME280;32445;51.376;10.874;2022-12-29T04:56:48;98335.22;;;11.30;60.78
46714;BME280;32445;51.376;10.874;2022-12-29T04:59:48;98329.88;;;11.33;60.59
46714;BME280;32445;51.376;10.874;2022-12-29T05:02:49;98322.91;;;11.33;60.54
46714;BME280;32445;51.376;10.874;2022-12-29T05:05:53;98321.03;;;11.37;60.37
46714;BME280;32445;51.376;10.874;2022-12-29T05:08:54;98306.06;;;11.42;60.28
46714;BME280;32445;51.376;10.874;2022-12-29T05:11:55;98323.22;;;11.45;60.05
46714;BME280;32445;51.376;10.874;2022-12-29T05:14:55;98316.38;;;11.43;60.64
46714;BME280;32445;51.376;10.874;2022-12-29T05:17:55;98309.41;;;11.44;60.31
46714;BME280;32445;51.376;10.874;2022-12-29T05:20:56;98313.69;;;11.45;60.00
46714;BME280;32445;51.376;10.874;2022-12-29T05:23:56;98319.66;;;11.47;60.27
46714;BME280;32445;51.376;10.874;2022-12-29T05:26:56;98319.56;;;11.49;59.93
46714;BME280;32445;51.376;10.874;2022-12-29T05:29:57;98332.56;;;11.49;60.62
46714;BME280;32445;51.376;10.874;2022-12-29T05:32:57;98336.09;;;11.48;60.37
46714;BME280;32445;51.376;10.874;2022-12-29T05:36:06;98314.59;;;11.44;60.70
46714;BME280;32445;51.376;10.874;2022-12-29T05:39:07;98320.56;;;11.46;60.71
46714;BME280;32445;51.376;10.874;2022-12-29T05:42:08;98304.91;;;11.48;60.57
46714;BME280;32445;51.376;10.874;2022-12-29T05:45:08;98303.81;;;11.52;60.68
46714;BME280;32445;51.376;10.874;2022-12-29T05:48:09;98302.00;;;11.54;60.47
46714;BME280;32445;51.376;10.874;2022-12-29T05:51:09;98303.78;;;11.53;60.70
46714;BME280;32445;51.376;10.874;2022-12-29T05:54:10;98302.00;;;11.54;60.59
46714;BME280;32445;51.376;10.874;2022-12-29T05:57:10;98291.53;;;11.55;60.73
46714;BME280;32445;51.376;10.874;2022-12-29T06:00:11;98288.94;;;11.55;60.53
46714;BME280;32445;51.376;10.874;2022-12-29T06:03:11;98283.75;;;11.55;60.84
46714;BME280;32445;51.376;10.874;2022-12-29T06:06:12;98281.91;;;11.57;60.56
46714;BME280;32445;51.376;10.874;2022-12-29T06:09:12;98284.41;;;11.59;60.20
46714;BME280;32445;51.376;10.874;2022-12-29T06:12:13;98280.81;;;11.62;60.23
46714;BME280;32445;51.376;10.874;2022-12-29T06:15:13;98274.72;;;11.63;59.85
46714;BME280;32445;51.376;10.874;2022-12-29T06:18:13;98276.41;;;11.64;60.10
46714;BME280;32445;51.376;10.874;2022-12-29T06:21:14;98277.25;;;11.64;60.12
46714;BME280;32445;51.376;10.874;2022-12-29T06:24:14;98279.59;;;11.69;59.68
46714;BME280;32445;51.376;10.874;2022-12-29T06:27:15;98259.59;;;11.71;59.32
46714;BME280;32445;51.376;10.874;2022-12-29T06:30:15;98263.94;;;11.70;59.66
46714;BME280;32445;51.376;10.874;2022-12-29T06:33:16;98276.00;;;11.71;59.39
46714;BME280;32445;51.376;10.874;2022-12-29T06:36:17;98280.22;;;11.74;59.35
46714;BME280;32445;51.376;10.874;2022-12-29T06:39:17;98267.22;;;11.74;59.15
46714;BME280;32445;51.376;10.874;2022-12-29T06:42:18;98282.03;;;11.72;59.62
46714;BME280;32445;51.376;10.874;2022-12-29T06:45:18;98292.31;;;11.75;59.07
46714;BME280;32445;51.376;10.874;2022-12-29T06:48:18;98307.91;;;11.75;59.11
46714;BME280;32445;51.376;10.874;2022-12-29T06:51:19;98290.47;;;11.77;59.10
46714;BME280;32445;51.376;10.874;2022-12-29T06:54:19;98306.06;;;11.77;59.34
46714;BME280;32445;51.376;10.874;2022-12-29T06:57:20;98292.97;;;11.78;59.15
46714;BME280;32445;51.376;10.874;2022-12-29T07:00:21;98289.31;;;11.83;59.47
46714;BME280;32445;51.376;10.874;2022-12-29T07:03:21;98289.22;;;11.84;59.18
46714;BME280;32445;51.376;10.874;2022-12-29T07:06:22;98266.66;;;11.85;59.35
46714;BME280;32445;51.376;10.874;2022-12-29T07:09:22;98265.84;;;11.84;58.79
46714;BME280;32445;51.376;10.874;2022-12-29T07:12:22;98287.53;;;11.83;59.04
46714;BME280;32445;51.376;10.874;2022-12-29T07:15:23;98298.03;;;11.82;58.72
46714;BME280;32445;51.376;10.874;2022-12-29T07:18:23;98291.91;;;11.83;59.35
46714;BME280;32445;51.376;10.874;2022-12-29T07:21:24;98298.97;;;11.81;59.51
46714;BME280;32445;51.376;10.874;2022-12-29T07:24:24;98290.38;;;11.78;59.58
46714;BME280;32445;51.376;10.874;2022-12-29T07:27:25;98310.34;;;11.78;59.43
46714;BME280;32445;51.376;10.874;2022-12-29T07:30:26;98311.09;;;11.80;59.62
46714;BME280;32445;51.376;10.874;2022-12-29T07:33:29;98302.41;;;11.81;59.53
46714;BME280;32445;51.376;10.874;2022-12-29T07:36:29;98330.00;;;11.84;59.38
46714;BME280;32445;51.376;10.874;2022-12-29T07:39:29;98313.53;;;11.83;59.63
46714;BME280;32445;51.376;10.874;2022-12-29T07:42:31;98316.00;;;11.86;59.05
46714;BME280;32445;51.376;10.874;2022-12-29T07:45:31;98306.38;;;11.88;59.34
46714;BME280;32445;51.376;10.874;2022-12-29T07:48:31;98326.03;;;11.94;58.73
46714;BME280;32445;51.376;10.874;2022-12-29T07:51:34;98313.09;;;11.92;59.11
46714;BME280;32445;51.376;10.874;2022-12-29T07:54:34;98328.66;;;11.94;58.86
46714;BME280;32445;51.376;10.874;2022-12-29T07:57:35;98323.28;;;11.97;58.86
46714;BME280;32445;51.376;10.874;2022-12-29T08:00:35;98320.59;;;11.99;58.60
46714;BME280;32445;51.376;10.874;2022-12-29T08:03:36;98317.00;;;12.01;58.43
46714;BME280;32445;51.376;10.874;2022-12-29T08:06:36;98314.34;;;12.03;58.59
46714;BME280;32445;51.376;10.874;2022-12-29T08:09:37;98331.47;;;12.07;58.32
46714;BME280;32445;51.376;10.874;2022-12-29T08:12:39;98333.06;;;12.09;58.04
46714;BME280;32445;51.376;10.874;2022-12-29T08:15:39;98326.94;;;12.10;58.20
46714;BME280;32445;51.376;10.874;2022-12-29T08:18:40;98319.81;;;12.14;58.06
46714;BME280;32445;51.376;10.874;2022-12-29T08:21:40;98331.75;;;12.18;58.33
46714;BME280;32445;51.376;10.874;2022-12-29T08:24:41;98317.84;;;12.19;57.64
46714;BME280;32445;51.376;10.874;2022-12-29T08:27:41;98321.19;;;12.21;57.69
46714;BME280;32445;51.376;10.874;2022-12-29T08:30:41;98325.47;;;12.22;57.87
46714;BME280;32445;51.376;10.874;2022-12-29T08:33:42;98323.53;;;12.26;57.86
46714;BME280;32445;51.376;10.874;2022-12-29T08:36:42;98330.34;;;12.28;57.58
46714;BME280;32445;51.376;10.874;2022-12-29T08:39:42;98324.25;;;12.29;57.38
46714;BME280;32445;51.376;10.874;2022-12-29T08:42:43;98331.97;;;12.31;57.33
46714;BME280;32445;51.376;10.874;2022-12-29T08:45:44;98335.41;;;12.32;57.66
46714;BME280;32445;51.376;10.874;2022-12-29T08:48:44;98337.00;;;12.34;57.81
46714;BME280;32445;51.376;10.874;2022-12-29T08:51:44;98333.50;;;12.35;57.33
46714;BME280;32445;51.376;10.874;2022-12-29T08:54:45;98330.03;;;12.35;57.94
46714;BME280;32445;51.376;10.874;2022-12-29T08:57:45;98327.50;;;12.33;57.58
46714;BME280;32445;51.376;10.874;2022-12-29T09:00:46;98326.50;;;12.36;57.99
46714;BME280;32445;51.376;10.874;2022-12-29T09:03:46;98313.44;;;12.37;58.00
46714;BME280;32445;51.376;10.874;2022-12-29T09:06:47;98317.72;;;12.38;58.12
46714;BME280;32445;51.376;10.874;2022-12-29T09:09:47;98343.75;;;12.38;58.20
46714;BME280;32445;51.376;10.874;2022-12-29T09:12:47;98329.03;;;12.37;57.93
46714;BME280;32445;51.376;10.874;2022-12-29T09:15:48;98332.56;;;12.36;58.02
46714;BME280;32445;51.376;10.874;2022-12-29T09:18:48;98332.56;;;12.36;57.71
46714;BME280;32445;51.376;10.874;2022-12-29T09:21:49;98343.81;;;12.37;57.67
46714;BME280;32445;51.376;10.874;2022-12-29T09:24:49;98327.34;;;12.36;57.90
46714;BME280;32445;51.376;10.874;2022-12-29T09:27:51;98331.63;;;12.37;57.83
46714;BME280;32445;51.376;10.874;2022-12-29T09:30:53;98334.25;;;12.37;57.87
46714;BME280;32445;51.376;10.874;2022-12-29T09:33:53;98326.28;;;12.40;57.50
46714;BME280;32445;51.376;10.874;2022-12-29T09:36:53;98322.59;;;12.44;57.70
46714;BME280;32445;51.376;10.874;2022-12-29T09:39:56;98335.44;;;12.48;57.01
46714;BME280;32445;51.376;10.874;2022-12-29T09:49:46;98326.88;;;12.45;57.28
46714;BME280;32445;51.376;10.874;2022-12-29T09:56:05;98330.91;;;12.51;57.25
46714;BME280;32445;51.376;10.874;2022-12-29T09:59:17;98355.19;;;12.52;57.26
46714;BME280;32445;51.376;10.874;2022-12-29T10:02:33;98371.88;;;12.48;57.91
46714;BME280;32445;51.376;10.874;2022-12-29T10:08:47;98383.97;;;12.49;58.32
46714;BME280;32445;51.376;10.874;2022-12-29T10:11:55;98374.72;;;12.43;58.71
46714;BME280;32445;51.376;10.874;2022-12-29T10:15:01;98377.66;;;12.37;59.21
46714;BME280;32445;51.376;10.874;2022-12-29T10:24:34;98366.53;;;12.33;60.41
46714;BME280;32445;51.376;10.874;2022-12-29T10:27:37;98377.88;;;12.32;60.37
46714;BME280;32445;51.376;10.874;2022-12-29T10:30:38;98361.50;;;12.30;60.58
46714;BME280;32445;51.376;10.874;2022-12-29T10:33:41;98371.66;;;12.35;60.75
46714;BME280;32445;51.376;10.874;2022-12-29T10:36:46;98368.00;;;12.39;60.51
46714;BME280;32445;51.376;10.874;2022-12-29T10:39:53;98368.44;;;12.47;60.24
46714;BME280;32445;51.376;10.874;2022-12-29T10:42:56;98364.84;;;12.50;60.14
46714;BME280;32445;51.376;10.874;2022-12-29T10:46:08;98352.75;;;12.49;60.48
46714;BME280;32445;51.376;10.874;2022-12-29T10:49:16;98358.56;;;12.54;60.46
46714;BME280;32445;51.376;10.874;2022-12-29T10:52:19;98356.44;;;12.60;59.96
46714;BME280;32445;51.376;10.874;2022-12-29T10:55:25;98362.44;;;12.62;60.05
46714;BME280;32445;51.376;10.874;2022-12-29T10:58:29;98350.94;;;12.67;59.80
46714;BME280;32445;51.376;10.874;2022-12-29T11:01:41;98361.34;;;12.67;59.72
46714;BME280;32445;51.376;10.874;2022-12-29T11:08:36;98343.28;;;12.63;59.15
46714;BME280;32445;51.376;10.874;2022-12-29T11:11:37;98345.56;;;12.70;59.34
46714;BME280;32445;51.376;10.874;2022-12-29T11:14:38;98345.31;;;12.74;58.92
46714;BME280;32445;51.376;10.874;2022-12-29T11:17:48;98348.66;;;12.76;58.67
46714;BME280;32445;51.376;10.874;2022-12-29T11:20:54;98350.09;;;12.82;58.62
46714;BME280;32445;51.376;10.874;2022-12-29T11:27:31;98347.50;;;12.82;57.71
46714;BME280;32445;51.376;10.874;2022-12-29T11:30:32;98333.22;;;12.89;57.76
46714;BME280;32445;51.376;10.874;2022-12-29T11:33:38;98333.22;;;12.89;57.57
46714;BME280;32445;51.376;10.874;2022-12-29T11:36:38;98344.31;;;12.93;57.27
46714;BME280;32445;51.376;10.874;2022-12-29T11:39:51;98332.03;;;12.95;57.15
46714;BME280;32445;51.376;10.874;2022-12-29T11:42:58;98357.09;;;12.97;56.46
46714;BME280;32445;51.376;10.874;2022-12-29T11:46:03;98326.66;;;12.98;56.49
46714;BME280;32445;51.376;10.874;2022-12-29T11:49:05;98337.03;;;13.00;55.75
46714;BME280;32445;51.376;10.874;2022-12-29T11:52:06;98329.13;;;13.01;55.37
46714;BME280;32445;51.376;10.874;2022-12-29T11:55:25;98332.56;;;13.02;54.71
46714;BME280;32445;51.376;10.874;2022-12-29T11:58:31;98361.22;;;13.02;54.96
46714;BME280;32445;51.376;10.874;2022-12-29T12:01:36;98340.38;;;13.02;54.55
46714;BME280;32445;51.376;10.874;2022-12-29T12:04:38;98351.63;;;13.02;53.61
46714;BME280;32445;51.376;10.874;2022-12-29T12:07:42;98349.97;;;13.01;53.99
46714;BME280;32445;51.376;10.874;2022-12-29T12:10:53;98363.00;;;13.01;53.61
46714;BME280;32445;51.376;10.874;2022-12-29T12:14:07;98344.75;;;13.01;54.02
46714;BME280;32445;51.376;10.874;2022-12-29T12:17:23;98351.31;;;13.08;54.11
46714;BME280;32445;51.376;10.874;2022-12-29T12:20:50;98351.88;;;13.13;54.25
46714;BME280;32445;51.376;10.874;2022-12-29T12:24:09;98364.41;;;13.23;54.70
46714;BME280;32445;51.376;10.874;2022-12-29T12:27:20;98340.97;;;13.23;53.97
46714;BME280;32445;51.376;10.874;2022-12-29T12:30:24;98346.75;;;13.28;54.74
46714;BME280;32445;51.376;10.874;2022-12-29T12:33:31;98350.03;;;13.31;54.42
46714;BME280;32445;51.376;10.874;2022-12-29T12:36:56;98345.72;;;13.30;53.74
46714;BME280;32445;51.376;10.874;2022-12-29T12:43:20;98351.03;;;13.45;54.23
46714;BME280;32445;51.376;10.874;2022-12-29T12:46:36;98368.19;;;13.49;54.18
46714;BME280;32445;51.376;10.874;2022-12-29T12:50:14;98367.00;;;13.55;54.15
46714;BME280;32445;51.376;10.874;2022-12-29T12:56:41;98366.47;;;13.64;53.62
46714;BME280;32445;51.376;10.874;2022-12-29T12:59:50;98374.47;;;13.61;53.07
46714;BME280;32445;51.376;10.874;2022-12-29T13:23:19;98375.28;;;13.47;51.03
46714;BME280;32445;51.376;10.874;2022-12-29T13:29:35;98380.41;;;13.48;51.19
46714;BME280;32445;51.376;10.874;2022-12-29T13:39:08;98388.63;;;13.41;50.48
46714;BME280;32445;51.376;10.874;2022-12-29T13:42:11;98399.13;;;13.39;51.04
46714;BME280;32445;51.376;10.874;2022-12-29T13:45:17;98398.06;;;13.43;51.33
46714;BME280;32445;51.376;10.874;2022-12-29T13:48:39;98407.56;;;13.44;50.94
46714;BME280;32445;51.376;10.874;2022-12-29T14:04:32;98429.25;;;13.45;50.44
46714;BME280;32445;51.376;10.874;2022-12-29T14:07:38;98429.50;;;13.40;50.47
46714;BME280;32445;51.376;10.874;2022-12-29T14:13:47;98430.50;;;13.38;50.06
46714;BME280;32445;51.376;10.874;2022-12-29T14:16:49;98438.50;;;13.35;50.04
46714;BME280;32445;51.376;10.874;2022-12-29T14:19:52;98430.72;;;13.33;50.81
46714;BME280;32445;51.376;10.874;2022-12-29T14:35:41;98442.66;;;13.21;50.91
46714;BME280;32445;51.376;10.874;2022-12-29T14:38:46;98468.47;;;13.10;51.23
46714;BME280;32445;51.376;10.874;2022-12-29T14:41:47;98463.50;;;13.05;51.17
46714;BME280;32445;51.376;10.874;2022-12-29T14:48:39;98464.31;;;12.90;50.85
46714;BME280;32445;51.376;10.874;2022-12-29T14:51:42;98468.91;;;12.85;51.65
46714;BME280;32445;51.376;10.874;2022-12-29T14:54:44;98473.28;;;12.84;51.76
46714;BME280;32445;51.376;10.874;2022-12-29T14:57:57;98484.44;;;12.86;51.93
46714;BME280;32445;51.376;10.874;2022-12-29T15:00:59;98479.31;;;12.85;51.97
46714;BME280;32445;51.376;10.874;2022-12-29T15:04:06;98480.31;;;12.82;52.18
46714;BME280;32445;51.376;10.874;2022-12-29T15:07:15;98474.19;;;12.83;52.01
46714;BME280;32445;51.376;10.874;2022-12-29T15:10:18;98482.16;;;12.80;51.84
46714;BME280;32445;51.376;10.874;2022-12-29T15:13:32;98488.13;;;12.82;51.92
46714;BME280;32445;51.376;10.874;2022-12-29T15:16:34;98488.03;;;12.84;51.86
46714;BME280;32445;51.376;10.874;2022-12-29T15:19:37;98480.47;;;12.79;51.62
46714;BME280;32445;51.376;10.874;2022-12-29T15:22:43;98492.75;;;12.77;52.07
46714;BME280;32445;51.376;10.874;2022-12-29T15:28:52;98502.22;;;12.78;52.40
46714;BME280;32445;51.376;10.874;2022-12-29T15:31:52;98504.91;;;12.76;52.62
46714;BME280;32445;51.376;10.874;2022-12-29T15:34:55;98512.28;;;12.68;52.49
46714;BME280;32445;51.376;10.874;2022-12-29T15:37:56;98512.50;;;12.63;52.36
46714;BME280;32445;51.376;10.874;2022-12-29T15:41:05;98518.78;;;12.59;52.27
46714;BME280;32445;51.376;10.874;2022-12-29T15:44:17;98528.44;;;12.57;52.02
46714;BME280;32445;51.376;10.874;2022-12-29T15:47:22;98522.63;;;12.52;51.76
46714;BME280;32445;51.376;10.874;2022-12-29T15:50:32;98519.56;;;12.44;51.05
46714;BME280;32445;51.376;10.874;2022-12-29T15:53:34;98538.69;;;12.43;51.71
46714;BME280;32445;51.376;10.874;2022-12-29T15:56:34;98522.31;;;12.41;51.18
46714;BME280;32445;51.376;10.874;2022-12-29T15:59:35;98541.28;;;12.43;51.06
46714;BME280;32445;51.376;10.874;2022-12-29T16:02:35;98526.72;;;12.39;50.76
46714;BME280;32445;51.376;10.874;2022-12-29T16:05:37;98531.03;;;12.40;51.02
46714;BME280;32445;51.376;10.874;2022-12-29T16:08:39;98532.94;;;12.36;50.36
46714;BME280;32445;51.376;10.874;2022-12-29T16:11:44;98531.34;;;12.34;50.01
46714;BME280;32445;51.376;10.874;2022-12-29T16:14:58;98546.00;;;12.35;49.79
46714;BME280;32445;51.376;10.874;2022-12-29T16:17:59;98539.97;;;12.34;50.74
46714;BME280;32445;51.376;10.874;2022-12-29T16:21:00;98541.59;;;12.37;50.84
46714;BME280;32445;51.376;10.874;2022-12-29T16:24:06;98542.66;;;12.33;49.62
46714;BME280;32445;51.376;10.874;2022-12-29T16:27:14;98535.84;;;12.30;49.70
46714;BME280;32445;51.376;10.874;2022-12-29T16:30:23;98525.28;;;12.33;49.75
46714;BME280;32445;51.376;10.874;2022-12-29T16:33:46;98526.19;;;12.32;49.89
46714;BME280;32445;51.376;10.874;2022-12-29T16:37:01;98535.84;;;12.30;49.91
46714;BME280;32445;51.376;10.874;2022-12-29T16:46:30;98519.06;;;12.18;49.35
46714;BME280;32445;51.376;10.874;2022-12-29T16:49:32;98527.78;;;12.17;49.79
46714;BME280;32445;51.376;10.874;2022-12-29T16:52:34;98530.53;;;12.14;50.16
46714;BME280;32445;51.376;10.874;2022-12-29T16:55:37;98537.56;;;12.12;49.84
46714;BME280;32445;51.376;10.874;2022-12-29T16:58:38;98550.03;;;12.05;49.24
46714;BME280;32445;51.376;10.874;2022-12-29T17:01:38;98547.50;;;12.04;49.97
46714;BME280;32445;51.376;10.874;2022-12-29T17:04:39;98552.84;;;12.01;50.32
46714;BME280;32445;51.376;10.874;2022-12-29T17:07:39;98555.72;;;11.94;49.80
46714;BME280;32445;51.376;10.874;2022-12-29T17:10:40;98558.44;;;11.91;50.36
46714;BME280;32445;51.376;10.874;2022-12-29T17:13:59;98558.38;;;11.93;50.55
46714;BME280;32445;51.376;10.874;2022-12-29T17:16:59;98565.41;;;11.91;50.17
46714;BME280;32445;51.376;10.874;2022-12-29T17:20:21;98574.50;;;11.82;50.13
46714;BME280;32445;51.376;10.874;2022-12-29T17:23:21;98573.78;;;11.78;50.57
46714;BME280;32445;51.376;10.874;2022-12-29T17:26:22;98580.09;;;11.73;50.51
46714;BME280;32445;51.376;10.874;2022-12-29T17:29:38;98577.78;;;11.67;50.45
46714;BME280;32445;51.376;10.874;2022-12-29T17:32:40;98568.28;;;11.66;50.58
46714;BME280;32445;51.376;10.874;2022-12-29T17:35:42;98569.25;;;11.63;50.29
46714;BME280;32445;51.376;10.874;2022-12-29T17:38:42;98567.72;;;11.59;50.47
46714;BME280;32445;51.376;10.874;2022-12-29T17:41:43;98573.06;;;11.56;50.37
46714;BME280;32445;51.376;10.874;2022-12-29T17:44:44;98574.81;;;11.55;50.48
46714;BME280;32445;51.376;10.874;2022-12-29T17:47:45;98581.84;;;11.53;50.02
46714;BME280;32445;51.376;10.874;2022-12-29T17:50:47;98585.50;;;11.49;50.20
46714;BME280;32445;51.376;10.874;2022-12-29T17:53:48;98594.06;;;11.51;50.85
46714;BME280;32445;51.376;10.874;2022-12-29T17:56:51;98592.28;;;11.52;50.49
46714;BME280;32445;51.376;10.874;2022-12-29T17:59:51;98590.88;;;11.45;50.30
46714;BME280;32445;51.376;10.874;2022-12-29T18:02:53;98597.00;;;11.43;50.70
46714;BME280;32445;51.376;10.874;2022-12-29T18:05:53;98603.09;;;11.42;50.48
46714;BME280;32445;51.376;10.874;2022-12-29T18:08:54;98599.84;;;11.37;50.72
46714;BME280;32445;51.376;10.874;2022-12-29T18:11:54;98602.66;;;11.33;50.64
46714;BME280;32445;51.376;10.874;2022-12-29T18:14:55;98614.97;;;11.29;50.50
46714;BME280;32445;51.376;10.874;2022-12-29T18:18:15;98616.25;;;11.19;49.86
46714;BME280;32445;51.376;10.874;2022-12-29T18:21:19;98618.97;;;11.16;50.50
46714;BME280;32445;51.376;10.874;2022-12-29T18:24:19;98628.66;;;11.12;50.66
46714;BME280;32445;51.376;10.874;2022-12-29T18:27:20;98625.34;;;11.08;50.75